sensor_id;sensor_type;location;lat;lon;timestamp;pressure;altitude;pressure_sealevel;temperature;humidity
56006;BME280;41888;44.696;10.522;2023-07-20T00:02:01;99899.38;;;24.92;88.59
56006;BME280;41888;44.696;10.522;2023-07-20T00:04:28;99900.53;;;25.00;88.51
56006;BME280;41888;44.696;10.522;2023-07-20T00:06:54;99903.66;;;25.15;87.81
56006;BME280;41888;44.696;10.522;2023-07-20T00:09:21;99902.00;;;25.06;88.36
56006;BME280;41888;44.696;10.522;2023-07-20T00:11:51;99904.91;;;25.09;88.26
56006;BME280;41888;44.696;10.522;2023-07-20T00:14:18;99907.75;;;25.04;89.21
56006;BME280;41888;44.696;10.522;2023-07-20T00:16:45;99901.97;;;24.97;89.99
56006;BME280;41888;44.696;10.522;2023-07-20T00:19:12;99892.38;;;24.77;91.79
56006;BME280;41888;44.696;10.522;2023-07-20T00:21:39;99894.25;;;24.68;93.97
56006;BME280;41888;44.696;10.522;2023-07-20T00:24:06;99892.56;;;24.59;95.80
56006;BME280;41888;44.696;10.522;2023-07-20T00:26:32;99896.34;;;24.49;97.07
56006;BME280;41888;44.696;10.522;2023-07-20T00:28:59;99896.22;;;24.54;97.25
56006;BME280;41888;44.696;10.522;2023-07-20T00:31:25;99894.94;;;24.52;98.84
56006;BME280;41888;44.696;10.522;2023-07-20T00:33:52;99893.16;;;24.47;100.00
56006;BME280;41888;44.696;10.522;2023-07-20T00:36:19;99895.91;;;24.33;100.00
56006;BME280;41888;44.696;10.522;2023-07-20T00:38:45;99907.13;;;24.32;100.00
56006;BME280;41888;44.696;10.522;2023-07-20T00:41:11;99917.63;;;24.25;100.00
56006;BME280;41888;44.696;10.522;2023-07-20T00:43:39;99930.81;;;24.18;100.00
56006;BME280;41888;44.696;10.522;2023-07-20T00:46:05;99941.09;;;24.21;100.00
56006;BME280;41888;44.696;10.522;2023-07-20T00:48:32;99951.84;;;24.26;100.00
56006;BME280;41888;44.696;10.522;2023-07-20T00:50:59;99956.06;;;24.32;100.00
56006;BME280;41888;44.696;10.522;2023-07-20T00:53:27;99960.72;;;24.18;100.00
56006;BME280;41888;44.696;10.522;2023-07-20T00:55:54;99965.88;;;24.06;100.00
56006;BME280;41888;44.696;10.522;2023-07-20T00:58:21;99968.59;;;23.92;100.00
56006;BME280;41888;44.696;10.522;2023-07-20T01:00:47;99959.03;;;23.94;100.00
56006;BME280;41888;44.696;10.522;2023-07-20T01:03:13;99968.28;;;23.93;100.00
56006;BME280;41888;44.696;10.522;2023-07-20T01:05:51;99965.34;;;23.90;100.00
56006;BME280;41888;44.696;10.522;2023-07-20T01:08:43;99973.72;;;23.80;100.00
56006;BME280;41888;44.696;10.522;2023-07-20T01:13:57;99956.66;;;23.52;100.00
56006;BME280;41888;44.696;10.522;2023-07-20T01:16:23;99956.19;;;23.45;100.00
56006;BME280;41888;44.696;10.522;2023-07-20T01:18:50;99949.44;;;23.42;100.00
56006;BME280;41888;44.696;10.522;2023-07-20T01:21:34;99934.69;;;23.48;100.00
56006;BME280;41888;44.696;10.522;2023-07-20T01:24:32;99923.84;;;23.48;100.00
56006;BME280;41888;44.696;10.522;2023-07-20T01:30:18;99934.59;;;23.40;100.00
56006;BME280;41888;44.696;10.522;2023-07-20T01:32:54;99941.13;;;23.39;100.00
56006;BME280;41888;44.696;10.522;2023-07-20T01:35:27;99944.81;;;23.43;100.00
56006;BME280;41888;44.696;10.522;2023-07-20T01:37:54;99952.97;;;23.43;100.00
56006;BME280;41888;44.696;10.522;2023-07-20T01:40:22;99953.69;;;23.35;100.00
56006;BME280;41888;44.696;10.522;2023-07-20T01:42:49;99952.97;;;23.29;100.00
56006;BME280;41888;44.696;10.522;2023-07-20T01:45:15;99942.50;;;23.23;100.00
56006;BME280;41888;44.696;10.522;2023-07-20T01:47:41;99944.22;;;23.19;100.00
56006;BME280;41888;44.696;10.522;2023-07-20T01:50:08;99955.88;;;23.19;100.00
56006;BME280;41888;44.696;10.522;2023-07-20T01:52:35;99953.84;;;23.11;100.00
56006;BME280;41888;44.696;10.522;2023-07-20T01:55:01;99953.66;;;23.07;100.00
56006;BME280;41888;44.696;10.522;2023-07-20T01:57:27;99949.59;;;22.91;100.00
56006;BME280;41888;44.696;10.522;2023-07-20T01:59:53;99962.66;;;22.89;100.00
56006;BME280;41888;44.696;10.522;2023-07-20T02:02:20;99964.75;;;22.92;100.00
56006;BME280;41888;44.696;10.522;2023-07-20T02:04:46;99966.16;;;22.90;100.00
56006;BME280;41888;44.696;10.522;2023-07-20T02:07:12;99969.50;;;23.00;100.00
56006;BME280;41888;44.696;10.522;2023-07-20T02:09:39;99970.63;;;23.13;100.00
56006;BME280;41888;44.696;10.522;2023-07-20T02:12:05;99977.16;;;23.12;100.00
56006;BME280;41888;44.696;10.522;2023-07-20T02:14:31;99979.63;;;22.95;100.00
56006;BME280;41888;44.696;10.522;2023-07-20T02:16:57;99992.31;;;22.99;100.00
56006;BME280;41888;44.696;10.522;2023-07-20T02:19:26;99990.78;;;22.93;100.00
56006;BME280;41888;44.696;10.522;2023-07-20T02:21:52;99989.22;;;23.06;100.00
56006;BME280;41888;44.696;10.522;2023-07-20T02:24:19;99987.00;;;23.08;100.00
56006;BME280;41888;44.696;10.522;2023-07-20T02:26:45;99985.78;;;23.00;100.00
56006;BME280;41888;44.696;10.522;2023-07-20T02:29:11;99982.47;;;23.03;100.00
56006;BME280;41888;44.696;10.522;2023-07-20T02:31:38;99979.16;;;23.06;100.00
56006;BME280;41888;44.696;10.522;2023-07-20T02:34:06;99980.41;;;23.14;100.00
56006;BME280;41888;44.696;10.522;2023-07-20T02:36:32;99974.72;;;22.97;100.00
56006;BME280;41888;44.696;10.522;2023-07-20T02:39:01;99980.19;;;22.78;100.00
56006;BME280;41888;44.696;10.522;2023-07-20T02:41:34;99974.84;;;22.73;100.00
56006;BME280;41888;44.696;10.522;2023-07-20T02:44:00;99974.91;;;22.68;100.00
56006;BME280;41888;44.696;10.522;2023-07-20T02:46:27;99980.91;;;22.65;100.00
56006;BME280;41888;44.696;10.522;2023-07-20T02:48:56;99981.50;;;22.62;100.00
56006;BME280;41888;44.696;10.522;2023-07-20T02:51:22;99972.28;;;22.63;100.00
56006;BME280;41888;44.696;10.522;2023-07-20T02:53:48;99968.13;;;22.52;100.00
56006;BME280;41888;44.696;10.522;2023-07-20T02:56:14;99963.25;;;22.49;100.00
56006;BME280;41888;44.696;10.522;2023-07-20T02:58:42;99956.16;;;22.53;100.00
56006;BME280;41888;44.696;10.522;2023-07-20T03:01:14;99950.63;;;22.58;100.00
56006;BME280;41888;44.696;10.522;2023-07-20T03:03:42;99956.88;;;22.58;100.00
56006;BME280;41888;44.696;10.522;2023-07-20T03:06:13;99957.69;;;22.59;100.00
56006;BME280;41888;44.696;10.522;2023-07-20T03:08:41;99953.88;;;22.60;100.00
56006;BME280;41888;44.696;10.522;2023-07-20T03:11:07;99961.97;;;22.46;100.00
56006;BME280;41888;44.696;10.522;2023-07-20T03:13:34;99956.16;;;22.34;100.00
56006;BME280;41888;44.696;10.522;2023-07-20T03:16:00;99958.53;;;22.41;100.00
56006;BME280;41888;44.696;10.522;2023-07-20T03:18:26;99960.56;;;22.49;100.00
56006;BME280;41888;44.696;10.522;2023-07-20T03:20:52;99959.97;;;22.33;100.00
56006;BME280;41888;44.696;10.522;2023-07-20T03:23:18;99949.50;;;22.26;100.00
56006;BME280;41888;44.696;10.522;2023-07-20T03:25:45;99951.16;;;22.60;100.00
56006;BME280;41888;44.696;10.522;2023-07-20T03:28:11;99950.22;;;22.51;100.00
56006;BME280;41888;44.696;10.522;2023-07-20T03:30:37;99948.09;;;22.48;100.00
56006;BME280;41888;44.696;10.522;2023-07-20T03:33:03;99948.63;;;22.50;100.00
56006;BME280;41888;44.696;10.522;2023-07-20T03:35:29;99949.22;;;22.28;100.00
56006;BME280;41888;44.696;10.522;2023-07-20T03:37:57;99951.72;;;22.24;100.00
56006;BME280;41888;44.696;10.522;2023-07-20T03:40:23;99944.00;;;22.13;100.00
56006;BME280;41888;44.696;10.522;2023-07-20T03:42:50;99936.31;;;22.01;100.00
56006;BME280;41888;44.696;10.522;2023-07-20T03:45:16;99928.78;;;21.98;100.00
56006;BME280;41888;44.696;10.522;2023-07-20T03:47:42;99932.06;;;21.95;100.00
56006;BME280;41888;44.696;10.522;2023-07-20T03:50:10;99921.53;;;22.12;100.00
56006;BME280;41888;44.696;10.522;2023-07-20T03:52:36;99921.59;;;22.45;100.00
56006;BME280;41888;44.696;10.522;2023-07-20T03:55:03;99925.22;;;22.54;100.00
56006;BME280;41888;44.696;10.522;2023-07-20T03:57:29;99936.44;;;22.66;100.00
56006;BME280;41888;44.696;10.522;2023-07-20T03:59:58;99935.91;;;22.64;100.00
56006;BME280;41888;44.696;10.522;2023-07-20T04:02:24;99934.53;;;22.48;100.00
56006;BME280;41888;44.696;10.522;2023-07-20T04:04:51;99928.28;;;22.66;100.00
56006;BME280;41888;44.696;10.522;2023-07-20T04:07:17;99929.22;;;22.94;100.00
56006;BME280;41888;44.696;10.522;2023-07-20T04:09:44;99938.38;;;23.11;100.00
56006;BME280;41888;44.696;10.522;2023-07-20T04:12:10;99930.34;;;23.20;100.00
56006;BME280;41888;44.696;10.522;2023-07-20T04:14:36;99934.75;;;23.16;100.00
56006;BME280;41888;44.696;10.522;2023-07-20T04:17:02;99933.38;;;23.32;100.00
56006;BME280;41888;44.696;10.522;2023-07-20T04:19:29;99936.41;;;23.31;100.00
56006;BME280;41888;44.696;10.522;2023-07-20T04:21:55;99946.94;;;23.32;100.00
56006;BME280;41888;44.696;10.522;2023-07-20T04:24:21;99949.16;;;23.44;100.00
56006;BME280;41888;44.696;10.522;2023-07-20T04:26:47;99948.66;;;23.42;100.00
56006;BME280;41888;44.696;10.522;2023-07-20T04:29:14;99951.22;;;23.52;100.00
56006;BME280;41888;44.696;10.522;2023-07-20T04:31:40;99953.41;;;23.64;100.00
56006;BME280;41888;44.696;10.522;2023-07-20T04:34:06;99946.47;;;23.71;100.00
56006;BME280;41888;44.696;10.522;2023-07-20T04:36:32;99951.28;;;23.74;100.00
56006;BME280;41888;44.696;10.522;2023-07-20T04:38:58;99949.38;;;23.88;100.00
56006;BME280;41888;44.696;10.522;2023-07-20T04:41:24;99950.16;;;24.03;100.00
56006;BME280;41888;44.696;10.522;2023-07-20T04:43:51;99940.47;;;24.10;100.00
56006;BME280;41888;44.696;10.522;2023-07-20T04:46:17;99932.00;;;24.25;100.00
56006;BME280;41888;44.696;10.522;2023-07-20T04:48:44;99934.06;;;24.42;100.00
56006;BME280;41888;44.696;10.522;2023-07-20T04:51:11;99932.50;;;24.50;100.00
56006;BME280;41888;44.696;10.522;2023-07-20T04:53:37;99930.97;;;24.57;100.00
56006;BME280;41888;44.696;10.522;2023-07-20T04:56:03;99930.09;;;24.70;100.00
56006;BME280;41888;44.696;10.522;2023-07-20T04:58:30;99923.03;;;24.69;100.00
56006;BME280;41888;44.696;10.522;2023-07-20T05:00:56;99930.50;;;24.86;100.00
56006;BME280;41888;44.696;10.522;2023-07-20T05:03:22;99932.72;;;25.06;100.00
56006;BME280;41888;44.696;10.522;2023-07-20T05:05:49;99933.75;;;25.10;100.00
56006;BME280;41888;44.696;10.522;2023-07-20T05:08:15;99927.22;;;25.20;100.00
56006;BME280;41888;44.696;10.522;2023-07-20T05:10:42;99942.63;;;25.33;100.00
56006;BME280;41888;44.696;10.522;2023-07-20T05:13:08;99944.97;;;25.48;100.00
56006;BME280;41888;44.696;10.522;2023-07-20T05:15:34;99946.06;;;25.47;100.00
56006;BME280;41888;44.696;10.522;2023-07-20T05:18:01;99936.09;;;25.74;100.00
56006;BME280;41888;44.696;10.522;2023-07-20T05:20:27;99946.22;;;25.99;100.00
56006;BME280;41888;44.696;10.522;2023-07-20T05:22:53;99948.78;;;26.13;100.00
56006;BME280;41888;44.696;10.522;2023-07-20T05:25:19;99954.31;;;26.64;100.00
56006;BME280;41888;44.696;10.522;2023-07-20T05:27:48;99956.38;;;27.40;96.01
56006;BME280;41888;44.696;10.522;2023-07-20T05:30:15;99956.22;;;28.03;90.67
56006;BME280;41888;44.696;10.522;2023-07-20T05:32:41;99961.88;;;28.48;85.77
56006;BME280;41888;44.696;10.522;2023-07-20T05:35:08;99963.44;;;28.70;82.77
56006;BME280;41888;44.696;10.522;2023-07-20T05:37:34;99974.28;;;29.32;80.30
56006;BME280;41888;44.696;10.522;2023-07-20T05:40:01;99978.84;;;29.89;74.82
56006;BME280;41888;44.696;10.522;2023-07-20T05:42:27;99976.44;;;30.24;73.16
56006;BME280;41888;44.696;10.522;2023-07-20T05:44:53;99975.09;;;31.14;68.18
56006;BME280;41888;44.696;10.522;2023-07-20T05:47:21;99978.13;;;31.40;65.87
56006;BME280;41888;44.696;10.522;2023-07-20T05:49:47;99986.22;;;31.99;63.94
56006;BME280;41888;44.696;10.522;2023-07-20T05:52:13;99980.22;;;31.46;63.79
56006;BME280;41888;44.696;10.522;2023-07-20T05:54:40;99983.63;;;32.06;60.30
56006;BME280;41888;44.696;10.522;2023-07-20T05:57:06;99994.28;;;32.23;60.63
56006;BME280;41888;44.696;10.522;2023-07-20T05:59:32;99997.41;;;32.60;60.22
56006;BME280;41888;44.696;10.522;2023-07-20T06:01:58;100001.56;;;32.70;59.74
56006;BME280;41888;44.696;10.522;2023-07-20T06:04:24;99997.25;;;32.34;61.10
56006;BME280;41888;44.696;10.522;2023-07-20T06:06:51;99987.31;;;31.48;64.29
56006;BME280;41888;44.696;10.522;2023-07-20T06:09:17;99995.66;;;30.92;67.39
56006;BME280;41888;44.696;10.522;2023-07-20T06:11:43;99997.69;;;30.95;67.10
56006;BME280;41888;44.696;10.522;2023-07-20T06:14:09;99999.66;;;30.94;67.85
56006;BME280;41888;44.696;10.522;2023-07-20T06:16:35;100002.47;;;30.82;68.15
56006;BME280;41888;44.696;10.522;2023-07-20T06:19:02;100001.69;;;30.97;67.48
56006;BME280;41888;44.696;10.522;2023-07-20T06:21:28;100004.63;;;31.32;66.62
56006;BME280;41888;44.696;10.522;2023-07-20T06:23:54;100011.31;;;29.87;71.59
56006;BME280;41888;44.696;10.522;2023-07-20T06:26:20;99998.41;;;29.63;74.35
56006;BME280;41888;44.696;10.522;2023-07-20T06:28:46;99998.06;;;30.13;72.07
56006;BME280;41888;44.696;10.522;2023-07-20T06:31:13;100009.22;;;30.45;71.16
56006;BME280;41888;44.696;10.522;2023-07-20T06:33:39;100008.19;;;30.37;70.37
56006;BME280;41888;44.696;10.522;2023-07-20T06:36:05;100011.09;;;30.16;71.51
56006;BME280;41888;44.696;10.522;2023-07-20T06:38:31;100012.06;;;30.36;70.26
56006;BME280;41888;44.696;10.522;2023-07-20T06:40:57;100017.78;;;30.55;69.84
56006;BME280;41888;44.696;10.522;2023-07-20T06:43:24;100018.59;;;30.56;69.84
56006;BME280;41888;44.696;10.522;2023-07-20T06:45:53;100011.56;;;29.82;74.12
56006;BME280;41888;44.696;10.522;2023-07-20T06:48:21;100013.41;;;30.02;73.28
56006;BME280;41888;44.696;10.522;2023-07-20T06:50:47;100008.63;;;30.51;70.89
56006;BME280;41888;44.696;10.522;2023-07-20T06:53:14;100020.78;;;30.38;71.59
56006;BME280;41888;44.696;10.522;2023-07-20T06:55:42;100024.88;;;30.44;70.87
56006;BME280;41888;44.696;10.522;2023-07-20T06:58:09;100029.25;;;30.33;70.40
56006;BME280;41888;44.696;10.522;2023-07-20T07:00:35;100024.69;;;29.76;73.57
56006;BME280;41888;44.696;10.522;2023-07-20T07:03:01;100024.31;;;29.54;75.37
56006;BME280;41888;44.696;10.522;2023-07-20T07:05:28;100019.41;;;29.47;75.48
56006;BME280;41888;44.696;10.522;2023-07-20T07:07:55;100029.94;;;29.82;73.90
56006;BME280;41888;44.696;10.522;2023-07-20T07:10:21;100026.66;;;30.00;71.65
56006;BME280;41888;44.696;10.522;2023-07-20T07:12:47;100027.22;;;30.06;70.27
56006;BME280;41888;44.696;10.522;2023-07-20T07:15:14;100030.84;;;30.34;69.51
56006;BME280;41888;44.696;10.522;2023-07-20T07:17:40;100023.28;;;30.55;68.59
56006;BME280;41888;44.696;10.522;2023-07-20T07:20:07;100026.25;;;30.38;68.28
56006;BME280;41888;44.696;10.522;2023-07-20T07:22:33;100022.41;;;30.15;68.96
56006;BME280;41888;44.696;10.522;2023-07-20T07:24:59;100025.84;;;30.00;70.07
56006;BME280;41888;44.696;10.522;2023-07-20T07:27:26;100025.84;;;30.12;69.59
56006;BME280;41888;44.696;10.522;2023-07-20T07:29:52;100023.34;;;30.19;68.06
56006;BME280;41888;44.696;10.522;2023-07-20T07:32:18;100021.25;;;30.28;67.67
56006;BME280;41888;44.696;10.522;2023-07-20T07:34:45;100026.41;;;30.30;68.63
56006;BME280;41888;44.696;10.522;2023-07-20T07:37:13;100033.34;;;30.39;68.13
56006;BME280;41888;44.696;10.522;2023-07-20T07:39:39;100031.75;;;30.38;67.73
56006;BME280;41888;44.696;10.522;2023-07-20T07:42:06;100026.75;;;30.28;68.29
56006;BME280;41888;44.696;10.522;2023-07-20T07:44:32;100023.34;;;30.19;67.41
56006;BME280;41888;44.696;10.522;2023-07-20T07:46:58;100026.41;;;29.93;69.85
56006;BME280;41888;44.696;10.522;2023-07-20T07:49:25;100024.22;;;29.74;70.23
56006;BME280;41888;44.696;10.522;2023-07-20T07:51:51;100024.31;;;29.54;71.01
56006;BME280;41888;44.696;10.522;2023-07-20T07:54:17;100021.06;;;29.97;70.35
56006;BME280;41888;44.696;10.522;2023-07-20T07:56:43;100017.78;;;30.31;68.94
56006;BME280;41888;44.696;10.522;2023-07-20T07:59:10;100027.00;;;30.63;67.47
56006;BME280;41888;44.696;10.522;2023-07-20T08:01:37;100021.56;;;30.39;66.65
56006;BME280;41888;44.696;10.522;2023-07-20T08:04:03;100023.09;;;30.12;69.26
56006;BME280;41888;44.696;10.522;2023-07-20T08:06:29;100024.06;;;29.47;73.12
56006;BME280;41888;44.696;10.522;2023-07-20T08:08:56;100023.34;;;29.95;72.21
56006;BME280;41888;44.696;10.522;2023-07-20T08:11:23;100024.94;;;30.08;69.39
56006;BME280;41888;44.696;10.522;2023-07-20T08:13:49;100029.25;;;30.09;70.02
56006;BME280;41888;44.696;10.522;2023-07-20T08:16:15;100034.22;;;30.03;71.02
56006;BME280;41888;44.696;10.522;2023-07-20T08:18:41;100034.97;;;30.28;69.39
56006;BME280;41888;44.696;10.522;2023-07-20T08:21:08;100032.22;;;30.28;69.24
56006;BME280;41888;44.696;10.522;2023-07-20T08:23:34;100034.50;;;30.38;69.61
56006;BME280;41888;44.696;10.522;2023-07-20T08:26:00;100031.66;;;30.35;67.70
56006;BME280;41888;44.696;10.522;2023-07-20T08:28:27;100029.56;;;29.47;72.93
56006;BME280;41888;44.696;10.522;2023-07-20T08:30:55;100035.59;;;29.40;73.68
56006;BME280;41888;44.696;10.522;2023-07-20T08:33:21;100029.81;;;29.66;74.89
56006;BME280;41888;44.696;10.522;2023-07-20T08:35:47;100030.81;;;29.61;72.95
56006;BME280;41888;44.696;10.522;2023-07-20T08:38:14;100025.34;;;29.49;74.66
56006;BME280;41888;44.696;10.522;2023-07-20T08:40:45;100028.75;;;29.46;74.71
56006;BME280;41888;44.696;10.522;2023-07-20T08:43:13;100023.78;;;29.85;73.39
56006;BME280;41888;44.696;10.522;2023-07-20T08:45:41;100018.66;;;29.95;72.97
56006;BME280;41888;44.696;10.522;2023-07-20T08:48:08;100023.75;;;30.33;71.48
56006;BME280;41888;44.696;10.522;2023-07-20T08:50:35;100019.13;;;30.61;70.34
56006;BME280;41888;44.696;10.522;2023-07-20T08:53:02;100011.59;;;30.86;69.48
56006;BME280;41888;44.696;10.522;2023-07-20T08:55:30;100023.31;;;30.99;68.66
56006;BME280;41888;44.696;10.522;2023-07-20T08:58:01;100012.31;;;31.11;67.81
56006;BME280;41888;44.696;10.522;2023-07-20T09:00:28;100013.50;;;30.98;66.91
56006;BME280;41888;44.696;10.522;2023-07-20T09:02:58;100008.88;;;31.02;67.64
56006;BME280;41888;44.696;10.522;2023-07-20T09:05:25;100010.34;;;30.56;68.75
56006;BME280;41888;44.696;10.522;2023-07-20T09:07:52;100007.25;;;30.85;70.13
56006;BME280;41888;44.696;10.522;2023-07-20T09:10:21;100011.53;;;31.26;67.88
56006;BME280;41888;44.696;10.522;2023-07-20T09:12:47;100013.13;;;31.43;65.97
56006;BME280;41888;44.696;10.522;2023-07-20T09:15:14;100005.78;;;31.63;65.25
56006;BME280;41888;44.696;10.522;2023-07-20T09:17:45;100011.56;;;31.58;64.44
56006;BME280;41888;44.696;10.522;2023-07-20T09:20:11;100009.44;;;31.67;64.77
56006;BME280;41888;44.696;10.522;2023-07-20T09:22:38;100010.47;;;31.31;65.47
56006;BME280;41888;44.696;10.522;2023-07-20T09:25:12;100011.44;;;31.38;65.29
56006;BME280;41888;44.696;10.522;2023-07-20T09:27:48;100009.56;;;31.11;65.09
56006;BME280;41888;44.696;10.522;2023-07-20T09:30:15;100009.06;;;30.66;68.86
56006;BME280;41888;44.696;10.522;2023-07-20T09:32:47;100011.72;;;30.78;68.35
56006;BME280;41888;44.696;10.522;2023-07-20T09:35:23;100014.78;;;31.16;68.35
56006;BME280;41888;44.696;10.522;2023-07-20T09:37:52;100018.97;;;31.41;66.41
56006;BME280;41888;44.696;10.522;2023-07-20T09:40:19;100018.81;;;31.34;64.26
56006;BME280;41888;44.696;10.522;2023-07-20T09:42:46;100010.31;;;31.55;64.89
56006;BME280;41888;44.696;10.522;2023-07-20T09:45:12;100007.09;;;31.37;63.64
56006;BME280;41888;44.696;10.522;2023-07-20T09:47:39;100009.28;;;31.16;64.24
56006;BME280;41888;44.696;10.522;2023-07-20T09:50:06;100005.22;;;31.26;63.76
56006;BME280;41888;44.696;10.522;2023-07-20T09:52:40;100005.13;;;31.07;63.54
56006;BME280;41888;44.696;10.522;2023-07-20T09:55:08;100007.38;;;31.32;63.01
56006;BME280;41888;44.696;10.522;2023-07-20T09:57:35;99996.72;;;31.46;61.97
56006;BME280;41888;44.696;10.522;2023-07-20T10:00:06;100000.78;;;31.21;61.90
56006;BME280;41888;44.696;10.522;2023-07-20T10:02:45;99998.28;;;31.16;62.67
56006;BME280;41888;44.696;10.522;2023-07-20T10:05:15;99992.13;;;31.51;63.67
56006;BME280;41888;44.696;10.522;2023-07-20T10:07:49;99993.25;;;31.97;59.78
56006;BME280;41888;44.696;10.522;2023-07-20T10:10:18;99994.13;;;32.16;58.63
56006;BME280;41888;44.696;10.522;2023-07-20T10:12:46;99996.75;;;32.28;57.42
56006;BME280;41888;44.696;10.522;2023-07-20T10:15:29;99998.28;;;32.45;56.21
56006;BME280;41888;44.696;10.522;2023-07-20T10:20:32;100000.38;;;32.67;56.55
56006;BME280;41888;44.696;10.522;2023-07-20T10:22:59;99996.56;;;32.76;57.42
56006;BME280;41888;44.696;10.522;2023-07-20T10:25:27;99991.88;;;32.22;60.18
56006;BME280;41888;44.696;10.522;2023-07-20T10:27:54;99991.50;;;31.73;61.52
56006;BME280;41888;44.696;10.522;2023-07-20T10:30:21;99985.94;;;31.69;62.25
56006;BME280;41888;44.696;10.522;2023-07-20T10:32:48;99985.06;;;32.00;59.76
56006;BME280;41888;44.696;10.522;2023-07-20T10:35:16;99988.03;;;31.92;59.37
56006;BME280;41888;44.696;10.522;2023-07-20T10:38:02;99981.88;;;32.14;58.65
56006;BME280;41888;44.696;10.522;2023-07-20T10:40:38;99978.63;;;32.27;59.27
56006;BME280;41888;44.696;10.522;2023-07-20T10:43:09;99979.94;;;32.53;57.28
56006;BME280;41888;44.696;10.522;2023-07-20T10:45:45;99976.31;;;32.49;57.07
56006;BME280;41888;44.696;10.522;2023-07-20T10:48:24;99968.00;;;32.45;57.85
56006;BME280;41888;44.696;10.522;2023-07-20T10:51:26;99977.69;;;32.58;57.00
56006;BME280;41888;44.696;10.522;2023-07-20T10:53:52;99973.00;;;32.59;58.45
56006;BME280;41888;44.696;10.522;2023-07-20T10:56:22;99967.34;;;32.33;58.47
56006;BME280;41888;44.696;10.522;2023-07-20T10:58:48;99964.28;;;32.18;60.94
56006;BME280;41888;44.696;10.522;2023-07-20T11:01:16;99969.28;;;32.13;58.51
56006;BME280;41888;44.696;10.522;2023-07-20T11:03:43;99969.59;;;31.76;60.97
56006;BME280;41888;44.696;10.522;2023-07-20T11:09:09;99962.53;;;31.95;61.45
56006;BME280;41888;44.696;10.522;2023-07-20T11:11:48;99961.88;;;32.17;61.63
56006;BME280;41888;44.696;10.522;2023-07-20T11:14:25;99966.03;;;32.46;58.52
56006;BME280;41888;44.696;10.522;2023-07-20T11:16:53;99958.72;;;32.53;58.41
56006;BME280;41888;44.696;10.522;2023-07-20T11:19:24;99955.03;;;32.65;57.44
56006;BME280;41888;44.696;10.522;2023-07-20T11:21:53;99953.78;;;32.43;57.28
56006;BME280;41888;44.696;10.522;2023-07-20T11:24:19;99949.00;;;32.05;60.51
56006;BME280;41888;44.696;10.522;2023-07-20T11:26:53;99942.97;;;32.15;58.61
56006;BME280;41888;44.696;10.522;2023-07-20T11:29:20;99942.19;;;32.53;59.06
56006;BME280;41888;44.696;10.522;2023-07-20T11:31:47;99947.84;;;32.22;59.32
56006;BME280;41888;44.696;10.522;2023-07-20T11:34:15;99936.66;;;32.15;59.55
56006;BME280;41888;44.696;10.522;2023-07-20T11:36:44;99939.59;;;32.60;57.48
56006;BME280;41888;44.696;10.522;2023-07-20T11:39:12;99931.81;;;32.27;58.84
56006;BME280;41888;44.696;10.522;2023-07-20T11:41:43;99933.44;;;32.28;59.50
56006;BME280;41888;44.696;10.522;2023-07-20T11:44:10;99936.69;;;32.34;58.73
56006;BME280;41888;44.696;10.522;2023-07-20T11:46:42;99930.91;;;32.39;57.06
56006;BME280;41888;44.696;10.522;2023-07-20T11:49:13;99925.44;;;32.62;56.92
56006;BME280;41888;44.696;10.522;2023-07-20T11:51:40;99920.88;;;32.12;57.03
56006;BME280;41888;44.696;10.522;2023-07-20T11:54:08;99920.22;;;32.38;57.35
56006;BME280;41888;44.696;10.522;2023-07-20T11:56:35;99927.19;;;32.51;57.87
56006;BME280;41888;44.696;10.522;2023-07-20T11:59:01;99915.50;;;32.57;56.98
56006;BME280;41888;44.696;10.522;2023-07-20T12:01:29;99915.28;;;32.47;56.04
56006;BME280;41888;44.696;10.522;2023-07-20T12:04:03;99919.31;;;32.30;59.04
56006;BME280;41888;44.696;10.522;2023-07-20T12:06:29;99912.13;;;32.25;57.97
56006;BME280;41888;44.696;10.522;2023-07-20T12:08:58;99901.00;;;32.80;55.06
56006;BME280;41888;44.696;10.522;2023-07-20T12:11:38;99891.91;;;32.98;54.34
56006;BME280;41888;44.696;10.522;2023-07-20T12:14:07;99885.63;;;33.01;53.58
56006;BME280;41888;44.696;10.522;2023-07-20T12:16:34;99891.09;;;32.75;55.32
56006;BME280;41888;44.696;10.522;2023-07-20T12:19:02;99893.84;;;32.37;55.94
56006;BME280;41888;44.696;10.522;2023-07-20T12:21:29;99888.19;;;32.49;56.03
56006;BME280;41888;44.696;10.522;2023-07-20T12:23:57;99889.66;;;32.62;55.66
56006;BME280;41888;44.696;10.522;2023-07-20T12:26:28;99884.00;;;32.97;54.25
56006;BME280;41888;44.696;10.522;2023-07-20T12:28:55;99887.31;;;33.29;53.81
56006;BME280;41888;44.696;10.522;2023-07-20T12:31:21;99883.16;;;33.42;52.30
56006;BME280;41888;44.696;10.522;2023-07-20T12:33:50;99872.13;;;33.42;51.48
56006;BME280;41888;44.696;10.522;2023-07-20T12:36:17;99867.22;;;32.83;53.50
56006;BME280;41888;44.696;10.522;2023-07-20T12:38:43;99871.72;;;32.94;53.25
56006;BME280;41888;44.696;10.522;2023-07-20T12:41:11;99874.53;;;33.43;51.46
56006;BME280;41888;44.696;10.522;2023-07-20T12:43:44;99868.81;;;33.29;51.45
56006;BME280;41888;44.696;10.522;2023-07-20T12:46:11;99872.13;;;32.51;53.90
56006;BME280;41888;44.696;10.522;2023-07-20T12:48:38;99864.97;;;32.46;53.47
56006;BME280;41888;44.696;10.522;2023-07-20T12:51:06;99862.50;;;32.41;55.42
56006;BME280;41888;44.696;10.522;2023-07-20T12:53:33;99856.13;;;32.79;54.33
56006;BME280;41888;44.696;10.522;2023-07-20T12:55:59;99853.63;;;32.93;54.65
56006;BME280;41888;44.696;10.522;2023-07-20T12:58:26;99859.81;;;32.87;55.11